createdAt,value
2022-12-06T00:01:30.100Z,12.67
2022-12-06T00:04:00.452Z,12.73
2022-12-06T00:06:30.965Z,15.13
2022-12-06T00:09:01.432Z,12.87
2022-12-06T00:11:31.739Z,12.43
2022-12-06T00:14:02.671Z,12.67
2022-12-06T00:16:32.934Z,14.43
2022-12-06T00:19:01.862Z,16.80
2022-12-06T00:21:32.938Z,11.00
2022-12-06T00:24:03.449Z,13.73
2022-12-06T00:26:32.438Z,12.27
2022-12-06T00:29:01.658Z,16.77
2022-12-06T00:31:32.401Z,14.27
2022-12-06T00:34:00.803Z,13.87
2022-12-06T00:36:31.497Z,16.23
2022-12-06T00:39:01.385Z,13.43
2022-12-06T00:41:30.031Z,18.08
2022-12-06T00:43:58.327Z,12.53
2022-12-06T00:46:28.672Z,12.63
2022-12-06T00:48:59.853Z,14.23
2022-12-06T00:51:30.042Z,12.17
2022-12-06T00:53:58.968Z,12.73
2022-12-06T00:56:28.352Z,14.17
2022-12-06T00:58:56.906Z,13.70
2022-12-06T01:01:27.336Z,11.37
2022-12-06T01:03:59.278Z,16.17
2022-12-06T01:06:31.564Z,10.93
2022-12-06T01:09:01.854Z,13.57
2022-12-06T01:11:31.032Z,13.37
2022-12-06T01:13:59.634Z,12.40
2022-12-06T01:16:30.883Z,12.57
2022-12-06T01:19:02.756Z,12.17
2022-12-06T01:21:31.390Z,15.57
2022-12-06T01:23:59.627Z,11.03
2022-12-06T01:26:30.003Z,11.77
2022-12-06T01:28:59.269Z,11.90
2022-12-06T01:31:33.649Z,10.90
2022-12-06T01:34:07.690Z,13.30
2022-12-06T01:36:35.973Z,13.23
2022-12-06T01:39:06.976Z,11.93
2022-12-06T01:41:35.451Z,12.83
2022-12-06T01:44:03.895Z,9.43
2022-12-06T01:46:35.118Z,14.10
2022-12-06T01:49:11.140Z,9.13
2022-12-06T01:51:41.678Z,10.50
2022-12-06T01:54:12.379Z,9.67
2022-12-06T01:56:41.508Z,8.87
2022-12-06T01:59:10.616Z,9.57
2022-12-06T02:01:40.385Z,7.83
2022-12-06T02:04:10.953Z,10.40
2022-12-06T02:06:41.195Z,10.07
2022-12-06T02:09:11.260Z,7.57
2022-12-06T02:11:39.951Z,10.47
2022-12-06T02:14:12.458Z,9.60
2022-12-06T02:16:55.504Z,9.03
2022-12-06T02:19:52.585Z,7.00
2022-12-06T02:22:28.199Z,7.60
2022-12-06T02:25:18.279Z,8.57
2022-12-06T02:28:16.391Z,8.17
2022-12-06T02:30:50.787Z,8.40
2022-12-06T02:33:26.543Z,7.57
2022-12-06T02:36:03.252Z,8.17
2022-12-06T02:38:37.196Z,8.75
2022-12-06T02:41:12.816Z,8.90
2022-12-06T02:43:46.880Z,7.23
2022-12-06T02:46:20.307Z,6.40
2022-12-06T02:48:50.068Z,9.20
2022-12-06T02:51:19.485Z,13.75
2022-12-06T02:53:52.633Z,8.50
2022-12-06T02:56:21.101Z,9.03
2022-12-06T02:58:49.333Z,6.33
2022-12-06T03:01:21.878Z,7.73
2022-12-06T03:04:08.345Z,10.47
2022-12-06T03:06:59.467Z,7.30
2022-12-06T03:09:40.851Z,5.53
2022-12-06T03:12:19.017Z,6.37
2022-12-06T03:14:54.538Z,6.50
2022-12-06T03:17:33.427Z,6.70
2022-12-06T03:20:06.467Z,8.10
2022-12-06T03:22:40.019Z,8.63
2022-12-06T03:25:10.469Z,8.50
2022-12-06T03:27:40.793Z,7.37
2022-12-06T03:30:12.453Z,7.03
2022-12-06T03:32:45.964Z,9.37
2022-12-06T03:35:18.653Z,8.33
2022-12-06T03:37:50.830Z,8.83
2022-12-06T03:40:23.381Z,7.30
2022-12-06T03:42:52.338Z,6.73
2022-12-06T03:45:23.792Z,7.77
2022-12-06T03:47:59.977Z,7.33
2022-12-06T03:50:33.788Z,6.70
2022-12-06T03:53:02.673Z,7.60
2022-12-06T03:55:31.353Z,8.33
2022-12-06T03:57:59.577Z,8.07
2022-12-06T04:00:27.864Z,8.60
2022-12-06T04:02:57.471Z,9.17
2022-12-06T04:05:25.688Z,8.53
2022-12-06T04:07:53.980Z,7.13
2022-12-06T04:10:23.015Z,9.43
2022-12-06T04:13:05.361Z,7.97
2022-12-06T04:15:36.193Z,10.07
2022-12-06T04:18:13.871Z,8.33
2022-12-06T04:21:25.530Z,9.03
2022-12-06T04:23:53.782Z,9.13
2022-12-06T04:26:23.499Z,8.07
2022-12-06T04:29:12.084Z,9.10
2022-12-06T04:31:59.067Z,11.43
2022-12-06T04:34:46.086Z,10.47
2022-12-06T04:37:31.650Z,10.07
2022-12-06T04:40:00.151Z,10.83
2022-12-06T04:42:46.058Z,10.57
2022-12-06T04:45:14.312Z,8.63
2022-12-06T04:47:42.553Z,9.57
2022-12-06T04:50:12.422Z,8.90
2022-12-06T04:52:40.747Z,9.37
2022-12-06T04:55:09.778Z,12.60
2022-12-06T04:57:38.026Z,9.33
2022-12-06T05:00:08.030Z,9.10
2022-12-06T05:02:36.281Z,7.63
2022-12-06T05:05:04.648Z,7.50
2022-12-06T05:07:34.344Z,5.53
2022-12-06T05:10:03.168Z,8.70
2022-12-06T05:12:31.576Z,7.97
2022-12-06T05:14:59.805Z,6.70
2022-12-06T05:17:28.006Z,7.73
2022-12-06T05:19:56.255Z,7.93
2022-12-06T05:22:24.528Z,6.90
2022-12-06T05:24:54.160Z,11.40
2022-12-06T05:27:22.390Z,10.60
2022-12-06T05:29:50.654Z,10.13
2022-12-06T05:32:18.979Z,9.70
2022-12-06T05:34:47.231Z,8.20
2022-12-06T05:37:15.453Z,10.30
2022-12-06T05:39:43.730Z,8.83
2022-12-06T05:42:20.432Z,10.27
2022-12-06T05:44:50.584Z,10.40
2022-12-06T05:47:18.835Z,11.50
2022-12-06T05:49:47.123Z,9.83
2022-12-06T05:52:15.633Z,11.33
2022-12-06T05:54:43.917Z,10.13
2022-12-06T05:57:13.692Z,9.17
2022-12-06T05:59:41.954Z,11.90
2022-12-06T06:02:10.400Z,9.33
2022-12-06T06:04:38.826Z,9.87
2022-12-06T06:07:07.015Z,10.90
2022-12-06T06:09:35.244Z,7.70
2022-12-06T06:12:06.841Z,12.40
2022-12-06T06:14:39.256Z,13.97
2022-12-06T06:17:07.665Z,13.43
2022-12-06T06:19:35.955Z,11.43
2022-12-06T06:22:04.227Z,10.00
2022-12-06T06:24:36.857Z,13.67
2022-12-06T06:27:05.628Z,10.53
2022-12-06T06:29:34.137Z,8.97
2022-12-06T06:32:03.881Z,14.63
2022-12-06T06:34:32.216Z,10.67
2022-12-06T06:37:00.527Z,9.30
2022-12-06T06:39:28.750Z,12.13
2022-12-06T06:41:56.978Z,14.03
2022-12-06T06:44:25.257Z,10.77
2022-12-06T06:46:53.535Z,12.43
2022-12-06T06:49:23.170Z,9.77
2022-12-06T06:51:51.414Z,9.83
2022-12-06T06:54:19.657Z,12.80
2022-12-06T06:56:47.874Z,10.37
2022-12-06T06:59:16.262Z,9.67
2022-12-06T07:01:45.043Z,9.80
2022-12-06T07:04:13.421Z,10.53
2022-12-06T07:06:43.344Z,12.53
2022-12-06T07:09:11.999Z,11.00
2022-12-06T07:11:40.422Z,13.60
2022-12-06T07:14:08.682Z,11.73
2022-12-06T07:16:37.241Z,12.97
2022-12-06T07:19:09.033Z,10.77
2022-12-06T07:21:37.687Z,9.70
2022-12-06T07:24:08.144Z,11.57
2022-12-06T07:26:36.617Z,10.10
2022-12-06T07:29:04.940Z,13.50
2022-12-06T07:31:33.922Z,13.27
2022-12-06T07:34:03.924Z,12.43
2022-12-06T07:36:33.611Z,12.50
2022-12-06T07:39:02.342Z,9.60
2022-12-06T07:41:49.411Z,12.03
2022-12-06T07:44:36.304Z,12.17
2022-12-06T07:47:05.114Z,18.60
2022-12-06T07:49:33.368Z,12.27
2022-12-06T07:52:02.428Z,11.77
2022-12-06T07:54:30.714Z,15.80
2022-12-06T07:57:00.355Z,12.43
2022-12-06T07:59:28.846Z,14.63
2022-12-06T08:01:57.126Z,17.70
2022-12-06T08:04:25.525Z,26.03
2022-12-06T08:06:54.234Z,21.50
2022-12-06T08:09:22.677Z,20.13
2022-12-06T08:11:51.008Z,21.20
2022-12-06T08:14:20.638Z,21.73
2022-12-06T08:16:48.912Z,16.77
2022-12-06T08:19:17.182Z,16.53
2022-12-06T08:21:45.617Z,14.43
2022-12-06T08:24:13.914Z,17.23
2022-12-06T08:26:42.177Z,19.80
2022-12-06T08:29:10.432Z,18.30
2022-12-06T08:31:40.176Z,15.30
2022-12-06T08:34:08.941Z,19.93
2022-12-06T08:36:40.224Z,17.27
2022-12-06T08:39:11.155Z,16.73
2022-12-06T08:41:58.356Z,14.03
2022-12-06T08:44:28.824Z,13.13
2022-12-06T08:46:59.846Z,13.47
2022-12-06T08:49:29.413Z,20.07
2022-12-06T08:51:58.984Z,20.93
2022-12-06T08:54:27.641Z,13.47
2022-12-06T08:56:56.035Z,16.87
2022-12-06T08:59:24.968Z,16.10
2022-12-06T09:01:53.372Z,19.27
2022-12-06T09:04:23.556Z,17.20
2022-12-06T09:06:52.232Z,14.27
2022-12-06T09:09:20.689Z,18.20
2022-12-06T09:11:50.922Z,19.53
2022-12-06T09:14:22.198Z,16.27
2022-12-06T09:16:51.761Z,18.83
2022-12-06T09:19:20.895Z,14.43
2022-12-06T09:21:50.574Z,17.70
2022-12-06T09:24:19.822Z,17.77
2022-12-06T09:26:48.755Z,21.67
2022-12-06T09:29:18.705Z,18.00
2022-12-06T09:31:47.238Z,20.90
2022-12-06T09:34:17.036Z,19.07
2022-12-06T09:36:49.300Z,23.40
2022-12-06T09:39:22.556Z,15.57
2022-12-06T09:42:41.747Z,21.93
2022-12-06T09:45:23.875Z,20.50
2022-12-06T09:48:10.960Z,19.43
2022-12-06T09:50:46.511Z,22.27
2022-12-06T09:53:22.690Z,17.97
2022-12-06T09:56:07.383Z,17.33
2022-12-06T09:58:50.500Z,18.93
2022-12-06T10:01:39.374Z,19.93
2022-12-06T10:04:27.401Z,22.17
2022-12-06T10:07:04.774Z,20.60
2022-12-06T10:09:44.742Z,26.35
2022-12-06T10:12:28.554Z,16.87
2022-12-06T10:15:17.026Z,23.47
2022-12-06T10:17:59.472Z,22.63
2022-12-06T10:20:34.473Z,19.97
2022-12-06T10:23:14.732Z,24.80
2022-12-06T10:25:48.278Z,25.73
2022-12-06T10:28:27.711Z,20.43
2022-12-06T10:30:59.405Z,26.63
2022-12-06T10:33:37.211Z,25.50
2022-12-06T10:36:09.080Z,20.70
2022-12-06T10:38:43.114Z,23.97
2022-12-06T10:41:19.466Z,20.37
2022-12-06T10:43:55.666Z,21.27
2022-12-06T10:46:49.996Z,22.47
2022-12-06T10:49:24.990Z,27.33
2022-12-06T10:52:00.155Z,21.73
2022-12-06T10:54:34.419Z,22.63
2022-12-06T10:57:06.417Z,27.13
2022-12-06T10:59:41.314Z,25.02
2022-12-06T11:02:24.514Z,22.87
2022-12-06T11:04:54.251Z,21.73
2022-12-06T11:07:26.564Z,21.60
2022-12-06T11:09:57.710Z,19.53
2022-12-06T11:12:33.748Z,21.23
2022-12-06T11:15:13.599Z,17.77
2022-12-06T11:17:47.879Z,21.87
2022-12-06T11:20:22.899Z,24.03
2022-12-06T11:23:06.293Z,17.17
2022-12-06T11:25:52.785Z,24.63
2022-12-06T11:28:34.684Z,17.37
2022-12-06T11:31:12.638Z,22.50
2022-12-06T11:33:41.148Z,25.23
2022-12-06T11:36:10.576Z,21.10
2022-12-06T11:38:42.667Z,24.67
2022-12-06T11:41:18.789Z,25.97
2022-12-06T11:43:47.381Z,21.53
2022-12-06T11:46:17.500Z,20.90
2022-12-06T11:48:46.167Z,21.60
2022-12-06T11:51:18.991Z,21.60
2022-12-06T11:53:58.905Z,20.30
2022-12-06T11:56:29.987Z,24.03
2022-12-06T11:59:09.151Z,28.37
2022-12-06T12:01:44.587Z,25.80
2022-12-06T12:04:40.064Z,19.00
2022-12-06T12:07:16.393Z,21.03
2022-12-06T12:09:57.490Z,20.17
2022-12-06T12:12:49.701Z,26.40
2022-12-06T12:15:19.658Z,22.80
2022-12-06T12:18:02.219Z,17.27
2022-12-06T12:20:37.445Z,21.07
2022-12-06T12:23:09.015Z,19.20
2022-12-06T12:25:42.327Z,18.33
2022-12-06T12:28:30.689Z,19.73
2022-12-06T12:31:06.156Z,20.07
2022-12-06T12:33:36.220Z,21.50
2022-12-06T12:36:21.864Z,21.97
2022-12-06T12:38:57.480Z,20.23
2022-12-06T12:41:32.727Z,23.60
2022-12-06T12:46:57.285Z,22.60
2022-12-06T12:49:30.643Z,26.47
2022-12-06T12:51:59.681Z,23.47
2022-12-06T12:54:31.337Z,21.77
2022-12-06T12:57:01.154Z,23.00
2022-12-06T12:59:33.603Z,20.83
2022-12-06T13:02:06.879Z,20.23
2022-12-06T13:04:44.967Z,20.97
2022-12-06T13:07:19.486Z,24.03
2022-12-06T13:09:54.594Z,25.13
2022-12-06T13:12:30.938Z,24.90
2022-12-06T13:15:04.002Z,23.27
2022-12-06T13:17:35.436Z,20.43
2022-12-06T13:20:06.114Z,27.02
2022-12-06T13:22:45.172Z,18.73
2022-12-06T13:25:13.523Z,21.03
2022-12-06T13:27:47.603Z,20.67
2022-12-06T13:30:20.803Z,21.47
2022-12-06T13:32:52.948Z,20.70
2022-12-06T13:35:29.399Z,24.57
2022-12-06T13:38:01.376Z,21.20
2022-12-06T13:40:46.944Z,21.73
2022-12-06T13:43:54.596Z,21.37
2022-12-06T13:46:26.469Z,20.37
2022-12-06T13:48:56.186Z,19.63
2022-12-06T13:51:46.042Z,25.70
2022-12-06T13:54:41.465Z,22.00
2022-12-06T13:57:32.913Z,24.73
2022-12-06T14:00:01.677Z,27.97
2022-12-06T14:02:54.429Z,30.90
2022-12-06T14:06:14.043Z,25.87
2022-12-06T14:08:54.208Z,25.93
2022-12-06T14:11:25.235Z,21.00
2022-12-06T14:14:08.803Z,29.17
2022-12-06T14:16:40.709Z,29.13
2022-12-06T14:19:18.865Z,30.23
2022-12-06T14:21:55.054Z,21.20
2022-12-06T14:24:39.569Z,26.77
2022-12-06T14:27:13.073Z,23.77
2022-12-06T14:29:42.407Z,26.20
2022-12-06T14:32:12.267Z,27.00
2022-12-06T14:34:43.300Z,26.23
2022-12-06T14:37:24.097Z,28.07
2022-12-06T14:39:54.733Z,24.60
2022-12-06T14:42:42.850Z,30.47
2022-12-06T14:45:16.605Z,25.47
2022-12-06T14:47:48.966Z,25.97
2022-12-06T14:50:35.323Z,22.07
2022-12-06T14:53:06.555Z,22.53
2022-12-06T14:55:38.347Z,27.10
2022-12-06T14:58:17.999Z,19.77
2022-12-06T15:00:54.673Z,20.27
2022-12-06T15:03:32.621Z,27.45
2022-12-06T15:06:14.012Z,23.37
2022-12-06T15:08:55.659Z,22.43
2022-12-06T15:11:51.506Z,26.83
2022-12-06T15:14:33.618Z,29.63
2022-12-06T15:17:04.400Z,36.33
2022-12-06T15:19:34.908Z,30.37
2022-12-06T15:56:50.488Z,41.60
2022-12-06T15:59:19.600Z,43.40
2022-12-06T16:01:52.041Z,40.90
2022-12-06T16:19:56.123Z,47.07
2022-12-06T16:22:41.226Z,45.40
2022-12-06T16:25:26.625Z,46.10
2022-12-06T16:28:03.229Z,47.58
2022-12-06T16:30:39.462Z,43.37
2022-12-06T16:33:07.995Z,38.77
2022-12-06T16:35:37.759Z,32.77
2022-12-06T16:38:08.692Z,34.03
2022-12-06T16:40:37.301Z,35.38
2022-12-06T16:43:05.584Z,36.17
2022-12-06T16:45:37.895Z,33.23
2022-12-06T16:48:07.029Z,26.07
2022-12-06T16:50:57.066Z,26.60
2022-12-06T16:53:41.064Z,30.70
2022-12-06T16:56:49.659Z,31.03
2022-12-06T16:59:34.515Z,29.10
2022-12-06T17:02:24.725Z,30.17
2022-12-06T17:05:56.199Z,30.03
2022-12-06T17:09:30.428Z,25.80
2022-12-06T17:12:13.358Z,22.37
2022-12-06T17:15:39.956Z,25.00
2022-12-06T17:18:19.569Z,29.10
2022-12-06T17:21:41.552Z,28.03
2022-12-06T17:28:11.387Z,22.37
2022-12-06T17:31:12.316Z,26.97
2022-12-06T17:33:40.868Z,26.00
2022-12-06T18:06:21.509Z,34.53
2022-12-06T18:58:38.486Z,28.33
2022-12-06T19:58:06.568Z,36.50
2022-12-06T20:00:34.867Z,40.27
2022-12-06T20:03:03.136Z,33.70
2022-12-06T20:05:34.320Z,35.83
2022-12-06T20:08:02.623Z,33.57
2022-12-06T20:10:31.022Z,32.43
2022-12-06T20:12:59.345Z,31.50
2022-12-06T20:15:28.994Z,24.97
2022-12-06T20:17:57.460Z,25.40
2022-12-06T20:20:25.878Z,23.57
2022-12-06T20:22:54.994Z,22.70
2022-12-06T20:25:23.827Z,25.40
2022-12-06T20:27:52.101Z,23.23
2022-12-06T20:30:21.457Z,20.40
2022-12-06T20:32:53.646Z,21.13
2022-12-06T20:35:21.955Z,17.60
2022-12-06T20:37:51.993Z,21.43
2022-12-06T20:40:20.609Z,20.13
2022-12-06T20:42:49.675Z,25.87
2022-12-06T20:45:20.428Z,25.47
2022-12-06T20:47:52.359Z,22.83
2022-12-06T20:50:22.274Z,21.93
2022-12-06T20:52:50.561Z,23.90
2022-12-06T20:55:19.101Z,23.80
2022-12-06T20:57:47.396Z,28.08
2022-12-06T21:00:16.972Z,24.97
2022-12-06T21:02:48.361Z,23.13
2022-12-06T21:05:19.116Z,19.90
2022-12-06T21:07:53.342Z,24.43
2022-12-06T21:10:21.630Z,20.80
2022-12-06T21:12:49.920Z,23.87
2022-12-06T21:15:18.309Z,20.60
2022-12-06T21:17:46.537Z,24.67
2022-12-06T21:20:14.820Z,23.57
2022-12-06T21:22:44.711Z,25.08
2022-12-06T21:25:13.067Z,22.87
2022-12-06T21:27:41.506Z,22.43
2022-12-06T21:30:11.063Z,24.80
2022-12-06T21:32:45.540Z,23.33
2022-12-06T21:35:15.420Z,22.73
2022-12-06T21:38:25.506Z,23.70
2022-12-06T21:41:43.467Z,22.90
2022-12-06T21:44:28.296Z,31.00
2022-12-06T21:46:56.934Z,27.17
2022-12-06T21:49:25.434Z,31.95
2022-12-06T21:52:00.330Z,24.00
2022-12-06T21:54:32.969Z,18.10
2022-12-06T21:57:01.387Z,26.50
2022-12-06T21:59:29.784Z,23.60
2022-12-06T22:02:00.936Z,22.30
2022-12-06T22:04:29.469Z,24.10
2022-12-06T22:06:57.791Z,27.30
2022-12-06T22:09:26.133Z,20.87
2022-12-06T22:11:56.094Z,25.03
2022-12-06T22:14:24.934Z,34.93
2022-12-06T22:16:53.207Z,27.37
2022-12-06T22:19:21.429Z,24.53
2022-12-06T22:21:49.702Z,28.97
2022-12-06T22:24:18.085Z,22.97
2022-12-06T22:26:49.120Z,20.57
2022-12-06T22:29:29.643Z,22.27
2022-12-06T22:31:58.032Z,24.40
2022-12-06T22:34:26.438Z,26.93
2022-12-06T22:37:14.523Z,19.57
2022-12-06T22:39:42.971Z,24.30
2022-12-06T22:42:11.285Z,22.67
2022-12-06T22:44:40.949Z,19.80
2022-12-06T22:47:11.659Z,22.87
2022-12-06T22:49:39.933Z,18.13
2022-12-06T22:52:08.201Z,21.17
2022-12-06T22:54:38.835Z,21.10
2022-12-06T22:57:12.355Z,24.60
2022-12-06T22:59:42.892Z,18.00
2022-12-06T23:02:25.953Z,23.07
2022-12-06T23:04:56.190Z,23.70
2022-12-06T23:07:33.096Z,19.67
2022-12-06T23:10:02.160Z,20.47
2022-12-06T23:12:36.179Z,19.83
2022-12-06T23:15:12.558Z,21.53
2022-12-06T23:17:41.052Z,17.37
2022-12-06T23:20:10.710Z,20.80
2022-12-06T23:22:39.808Z,24.43
2022-12-06T23:25:50.117Z,20.10
2022-12-06T23:28:24.111Z,22.37
2022-12-06T23:31:07.027Z,27.97
2022-12-06T23:33:44.430Z,21.43
2022-12-06T23:36:18.492Z,24.87
2022-12-06T23:39:11.978Z,23.93
2022-12-06T23:41:40.282Z,24.67
2022-12-06T23:44:09.597Z,30.67
2022-12-06T23:46:45.945Z,24.80
2022-12-06T23:49:17.846Z,29.13
2022-12-06T23:51:46.819Z,28.33
2022-12-06T23:54:16.810Z,25.53
2022-12-06T23:56:45.651Z,27.93
2022-12-06T23:59:15.952Z,29.17
